Time;durP1;ratioP1;P1;durP2;ratioP2;P2;SDS_P1;SDS_P2;PMS_P1;PMS_P2;Temp;Humidity;BMP_temperature;BMP_pressure;BME280_temperature;BME280_humidity;BME280_pressure;Samples;Min_cycle;Max_cycle;Signal;HPM_P1;HPM_P2
2023/07/22 00:02:03;;;;;;;2.80;2.00;;;;;;;-128.00;-1.00;-1.00;98163;295;1002648;-36
2023/07/22 00:04:29;;;;;;;2.10;1.90;;;;;;;-128.00;-1.00;-1.00;97934;295;1002906;-34
2023/07/22 00:06:55;;;;;;;4.10;2.40;;;;;;;-128.00;-1.00;-1.00;97899;295;1003236;-36
2023/07/22 00:09:21;;;;;;;21.00;3.20;;;;;;;-128.00;-1.00;-1.00;97932;295;1003420;-32
2023/07/22 00:11:46;;;;;;;3.20;2.50;;;;;;;-128.00;-1.00;-1.00;97939;295;1004956;-32
2023/07/22 00:14:12;;;;;;;3.60;2.10;;;;;;;-128.00;-1.00;-1.00;98038;295;1004488;-32
2023/07/22 00:16:37;;;;;;;6.70;2.10;;;;;;;-128.00;-1.00;-1.00;97877;295;1003871;-31
2023/07/22 00:19:03;;;;;;;2.30;2.10;;;;;;;-128.00;-1.00;-1.00;97827;295;1002971;-34
2023/07/22 00:21:29;;;;;;;2.60;2.10;;;;;;;-128.00;-1.00;-1.00;97855;295;1003079;-42
2023/07/22 00:23:55;;;;;;;3.90;2.20;;;;;;;-128.00;-1.00;-1.00;97951;284;1003009;-31
2023/07/22 00:26:20;;;;;;;2.60;2.40;;;;;;;-128.00;-1.00;-1.00;97945;295;1002803;-36
2023/07/22 00:28:46;;;;;;;3.30;2.40;;;;;;;-128.00;-1.00;-1.00;98015;283;1003498;-31
2023/07/22 00:31:11;;;;;;;5.30;2.30;;;;;;;-128.00;-1.00;-1.00;98049;295;1003188;-35
2023/07/22 00:33:38;;;;;;;2.60;2.30;;;;;;;-128.00;-1.00;-1.00;97811;295;1002530;-36
2023/07/22 00:36:04;;;;;;;2.90;2.00;;;;;;;-128.00;-1.00;-1.00;97899;295;1004142;-32
2023/07/22 01:18:19;;;;;;;5.60;3.40;;;;;;;-99.64;19.20;19772.61;19586;296;8046060;-36
2023/07/22 01:20:45;;;;;;;7.80;4.50;;;;;;;-128.00;-1.00;-1.00;18612;298;7505309;-36
2023/07/22 01:23:12;;;;;;;5.00;3.00;;;;;;;-128.00;-1.00;-1.00;18871;296;7504833;-36
2023/07/22 01:25:38;;;;;;;5.10;3.40;;;;;;;-128.00;-1.00;-1.00;18882;347;7504826;-36
2023/07/22 01:28:09;;;;;;;3.60;3.30;;;;;;;-128.00;-1.00;-1.00;18896;287;7505940;-33
2023/07/22 01:30:35;;;;;;;13.30;3.10;;;;;;;-128.00;-1.00;-1.00;18468;295;7504635;-32
2023/07/22 01:33:01;;;;;;;9.10;4.10;;;;;;;-128.00;-1.00;-1.00;18898;295;7504503;-36
2023/07/22 01:35:28;;;;;;;12.10;4.80;;;;;;;-128.00;-1.00;-1.00;18903;295;7504869;-37
2023/07/22 01:37:54;;;;;;;7.80;4.10;;;;;;;-128.00;-1.00;-1.00;18476;288;7504949;-33
2023/07/22 01:40:20;;;;;;;5.80;4.20;;;;;;;-128.00;-1.00;-1.00;18481;287;7504572;-33
2023/07/22 01:42:46;;;;;;;11.60;4.70;;;;;;;-128.00;-1.00;-1.00;18480;295;7504805;-37
2023/07/22 01:45:12;;;;;;;9.00;4.00;;;;;;;-128.00;-1.00;-1.00;18904;295;7505675;-37
2023/07/22 01:47:40;;;;;;;19.90;5.70;;;;;;;-128.00;-1.00;-1.00;18871;295;7505435;-32
2023/07/22 01:50:06;;;;;;;8.90;4.90;;;;;;;-128.00;-1.00;-1.00;18487;287;7505168;-33
2023/07/22 01:52:32;;;;;;;8.70;3.90;;;;;;;-128.00;-1.00;-1.00;18513;340;7504988;-33
2023/07/22 01:54:57;;;;;;;10.00;4.30;;;;;;;-128.00;-1.00;-1.00;18493;287;7504948;-36
2023/07/22 01:57:23;;;;;;;6.50;4.80;;;;;;;-128.00;-1.00;-1.00;18511;287;7504609;-36
2023/07/22 01:59:49;;;;;;;11.50;5.20;;;;;;;-128.00;-1.00;-1.00;18903;295;7505180;-32
2023/07/22 02:02:15;;;;;;;14.40;4.90;;;;;;;-128.00;-1.00;-1.00;18898;295;7504736;-31
2023/07/22 02:04:41;;;;;;;5.00;4.60;;;;;;;-128.00;-1.00;-1.00;18870;312;7504918;-36
2023/07/22 02:07:07;;;;;;;4.10;3.30;;;;;;;-128.00;-1.00;-1.00;18878;295;7504928;-34
2023/07/22 02:09:33;;;;;;;6.80;4.70;;;;;;;-128.00;-1.00;-1.00;18914;287;7505069;-33
2023/07/22 02:12:00;;;;;;;6.00;5.40;;;;;;;-128.00;-1.00;-1.00;18905;336;7504585;-34
2023/07/22 02:14:26;;;;;;;6.30;5.70;;;;;;;-128.00;-1.00;-1.00;18893;319;7505271;-37
2023/07/22 02:16:52;;;;;;;5.40;4.60;;;;;;;-128.00;-1.00;-1.00;18978;347;7504210;-37
2023/07/22 02:19:18;;;;;;;11.30;5.70;;;;;;;-128.00;-1.00;-1.00;18852;341;7505076;-34
2023/07/22 02:21:45;;;;;;;6.50;4.50;;;;;;;-128.00;-1.00;-1.00;18872;295;7504827;-34
2023/07/22 02:24:11;;;;;;;4.80;3.90;;;;;;;-128.00;-1.00;-1.00;18884;296;7504980;-34
2023/07/22 02:26:37;;;;;;;8.30;5.70;;;;;;;-128.00;-1.00;-1.00;18856;320;7504618;-33
2023/07/22 02:29:03;;;;;;;12.70;4.80;;;;;;;-128.00;-1.00;-1.00;18880;295;7504394;-34
2023/07/22 02:31:29;;;;;;;8.80;6.60;;;;;;;-128.00;-1.00;-1.00;18861;348;7504784;-34
2023/07/22 02:33:56;;;;;;;6.30;4.30;;;;;;;-128.00;-1.00;-1.00;18860;296;7504836;-33
2023/07/22 02:36:22;;;;;;;9.50;4.20;;;;;;;-128.00;-1.00;-1.00;18849;295;7504267;-33
2023/07/22 02:38:49;;;;;;;6.90;6.10;;;;;;;-128.00;-1.00;-1.00;18881;295;7504503;-33
2023/07/22 02:41:15;;;;;;;14.20;3.70;;;;;;;-128.00;-1.00;-1.00;18863;297;7504812;-37
2023/07/22 02:43:41;;;;;;;21.10;3.40;;;;;;;-128.00;-1.00;-1.00;18885;296;7505770;-33
2023/07/22 02:46:08;;;;;;;11.00;5.40;;;;;;;-128.00;-1.00;-1.00;18894;288;7504408;-36
2023/07/22 02:48:34;;;;;;;6.30;5.10;;;;;;;-128.00;-1.00;-1.00;18850;288;7504450;-32
2023/07/22 02:51:07;;;;;;;9.50;5.80;;;;;;;-128.00;-1.00;-1.00;18854;307;7504551;-33
2023/07/22 02:53:33;;;;;;;3.40;2.80;;;;;;;-128.00;-1.00;-1.00;18468;288;7505052;-37
2023/07/22 02:55:59;;;;;;;4.80;3.90;;;;;;;-128.00;-1.00;-1.00;18469;295;7504991;-36
2023/07/22 02:58:25;;;;;;;17.60;4.20;;;;;;;-128.00;-1.00;-1.00;18472;288;7504342;-32
2023/07/22 03:00:51;;;;;;;11.90;4.80;;;;;;;-128.00;-1.00;-1.00;18468;320;7506084;-33
2023/07/22 03:03:16;;;;;;;5.10;4.60;;;;;;;-128.00;-1.00;-1.00;18485;295;7506782;-33
2023/07/22 03:05:42;;;;;;;7.50;5.70;;;;;;;-128.00;-1.00;-1.00;18491;295;7504372;-37
2023/07/22 03:08:08;;;;;;;6.00;4.80;;;;;;;-128.00;-1.00;-1.00;18464;288;7506273;-33
2023/07/22 03:10:34;;;;;;;9.00;5.30;;;;;;;-128.00;-1.00;-1.00;18855;288;7504907;-37
2023/07/22 03:13:01;;;;;;;7.90;5.50;;;;;;;-128.00;-1.00;-1.00;18890;296;7504794;-34
2023/07/22 03:15:28;;;;;;;14.00;4.10;;;;;;;-128.00;-1.00;-1.00;18450;297;7507550;-33
2023/07/22 03:17:55;;;;;;;12.90;3.10;;;;;;;-128.00;-1.00;-1.00;18441;296;7504438;-37
2023/07/22 03:20:22;;;;;;;8.60;4.70;;;;;;;-128.00;-1.00;-1.00;18470;347;7505149;-33
2023/07/22 03:22:48;;;;;;;6.20;5.30;;;;;;;-128.00;-1.00;-1.00;18480;288;7504146;-38
2023/07/22 03:25:16;;;;;;;3.90;3.60;;;;;;;-128.00;-1.00;-1.00;18468;295;7504472;-33
2023/07/22 03:27:43;;;;;;;27.00;4.70;;;;;;;-128.00;-1.00;-1.00;18492;296;7505881;-37
2023/07/22 03:30:14;;;;;;;7.40;5.40;;;;;;;-128.00;-1.00;-1.00;18479;288;7505023;-33
2023/07/22 03:32:42;;;;;;;11.00;4.30;;;;;;;-128.00;-1.00;-1.00;18458;288;7505629;-32
2023/07/22 03:35:10;;;;;;;6.70;4.90;;;;;;;-128.00;-1.00;-1.00;18430;336;7505576;-32
2023/07/22 03:37:36;;;;;;;4.10;3.70;;;;;;;-128.00;-1.00;-1.00;18466;288;7504536;-36
2023/07/22 03:40:17;;;;;;;5.30;4.90;;;;;;;-128.00;-1.00;-1.00;18488;288;7505093;-36
2023/07/22 03:42:43;;;;;;;3.90;3.50;;;;;;;-128.00;-1.00;-1.00;18500;288;7504445;-32
2023/07/22 03:45:12;;;;;;;4.10;3.70;;;;;;;-128.00;-1.00;-1.00;18465;295;7504552;-32
2023/07/22 03:47:39;;;;;;;4.30;3.50;;;;;;;-128.00;-1.00;-1.00;18470;296;7505026;-32
2023/07/22 03:50:05;;;;;;;4.10;3.70;;;;;;;-128.00;-1.00;-1.00;18467;296;7506202;-33
2023/07/22 03:52:31;;;;;;;4.80;4.30;;;;;;;-128.00;-1.00;-1.00;18472;295;7504508;-32
2023/07/22 03:54:57;;;;;;;7.60;3.00;;;;;;;-128.00;-1.00;-1.00;18464;288;7506580;-32
2023/07/22 03:57:26;;;;;;;5.80;3.10;;;;;;;-128.00;-1.00;-1.00;18866;288;7504554;-36
2023/07/22 03:59:54;;;;;;;4.50;4.10;;;;;;;-128.00;-1.00;-1.00;18446;295;7505843;-32
2023/07/22 04:02:19;;;;;;;10.40;3.80;;;;;;;-128.00;-1.00;-1.00;18487;347;7505154;-33
2023/07/22 04:04:45;;;;;;;5.40;4.60;;;;;;;-128.00;-1.00;-1.00;18467;296;7504978;-32
2023/07/22 04:07:11;;;;;;;3.20;2.60;;;;;;;-128.00;-1.00;-1.00;18495;296;7504483;-36
2023/07/22 04:09:36;;;;;;;3.20;2.70;;;;;;;-128.00;-1.00;-1.00;18478;295;7505148;-37
2023/07/22 04:12:02;;;;;;;2.60;2.30;;;;;;;-128.00;-1.00;-1.00;18451;295;7505883;-37
2023/07/22 04:14:29;;;;;;;7.80;3.50;;;;;;;-128.00;-1.00;-1.00;18485;288;7504357;-33
2023/07/22 04:16:54;;;;;;;3.50;2.80;;;;;;;-128.00;-1.00;-1.00;18463;295;7505929;-37
2023/07/22 04:19:20;;;;;;;9.30;3.70;;;;;;;-128.00;-1.00;-1.00;18469;288;7504268;-37
2023/07/22 04:21:45;;;;;;;2.70;2.30;;;;;;;-128.00;-1.00;-1.00;18474;295;7504255;-32
2023/07/22 04:24:11;;;;;;;13.10;4.00;;;;;;;-128.00;-1.00;-1.00;18433;295;7506050;-32
2023/07/22 04:26:37;;;;;;;2.80;2.40;;;;;;;-128.00;-1.00;-1.00;18880;288;7504344;-36
2023/07/22 04:29:03;;;;;;;4.20;3.80;;;;;;;-128.00;-1.00;-1.00;18844;336;7504405;-36
2023/07/22 04:31:29;;;;;;;4.70;3.00;;;;;;;-128.00;-1.00;-1.00;18871;288;7505050;-36
2023/07/22 04:33:57;;;;;;;7.10;3.10;;;;;;;-128.00;-1.00;-1.00;18866;288;7505951;-33
2023/07/22 04:36:23;;;;;;;5.40;3.60;;;;;;;-128.00;-1.00;-1.00;18487;288;7504588;-36
2023/07/22 04:38:49;;;;;;;5.00;3.00;;;;;;;-128.00;-1.00;-1.00;18841;297;7504894;-36
2023/07/22 04:41:15;;;;;;;3.10;2.40;;;;;;;-128.00;-1.00;-1.00;18846;295;7504761;-36
2023/07/22 04:43:41;;;;;;;4.10;3.70;;;;;;;-128.00;-1.00;-1.00;18840;296;7504922;-32
2023/07/22 04:46:08;;;;;;;2.80;2.30;;;;;;;-128.00;-1.00;-1.00;18886;296;7504183;-32
2023/07/22 04:48:34;;;;;;;1.50;1.40;;;;;;;-128.00;-1.00;-1.00;18473;288;7504794;-35
2023/07/22 04:51:00;;;;;;;9.30;3.20;;;;;;;-128.00;-1.00;-1.00;18464;296;7504639;-36
2023/07/22 04:53:25;;;;;;;3.30;3.00;;;;;;;-128.00;-1.00;-1.00;18474;288;7505758;-36
2023/07/22 04:55:52;;;;;;;4.10;2.60;;;;;;;-128.00;-1.00;-1.00;18879;288;7505920;-32
2023/07/22 04:58:20;;;;;;;4.10;3.20;;;;;;;-128.00;-1.00;-1.00;18857;297;7504001;-33
2023/07/22 05:00:45;;;;;;;4.10;3.20;;;;;;;-128.00;-1.00;-1.00;18471;296;7504476;-36
2023/07/22 05:03:11;;;;;;;2.30;1.50;;;;;;;-128.00;-1.00;-1.00;18472;337;7506394;-32
2023/07/22 05:05:36;;;;;;;4.20;3.10;;;;;;;-128.00;-1.00;-1.00;18450;296;7506206;-32
2023/07/22 05:08:03;;;;;;;3.10;1.80;;;;;;;-128.00;-1.00;-1.00;18447;296;7504626;-32
2023/07/22 05:10:29;;;;;;;4.70;3.50;;;;;;;-128.00;-1.00;-1.00;18453;296;7506115;-36
2023/07/22 05:12:54;;;;;;;5.70;1.70;;;;;;;-128.00;-1.00;-1.00;18495;288;7505417;-36
2023/07/22 05:15:21;;;;;;;3.50;3.20;;;;;;;-128.00;-1.00;-1.00;18877;284;7504697;-32
2023/07/22 05:17:47;;;;;;;2.50;1.90;;;;;;;-128.00;-1.00;-1.00;18899;296;7505783;-36
2023/07/22 05:20:13;;;;;;;3.50;2.70;;;;;;;-128.00;-1.00;-1.00;18882;296;7504583;-32
2023/07/22 05:22:40;;;;;;;6.80;2.60;;;;;;;-128.00;-1.00;-1.00;18889;296;7504426;-36
2023/07/22 05:25:07;;;;;;;12.40;3.80;;;;;;;-128.00;-1.00;-1.00;18853;297;7504950;-35
2023/07/22 05:27:32;;;;;;;3.20;1.40;;;;;;;-128.00;-1.00;-1.00;18522;288;7504531;-36
2023/07/22 05:29:58;;;;;;;2.30;1.00;;;;;;;-128.00;-1.00;-1.00;18456;296;7504575;-33
2023/07/22 05:32:24;;;;;;;2.70;2.30;;;;;;;-128.00;-1.00;-1.00;18834;297;7504343;-32
2023/07/22 05:34:51;;;;;;;3.70;2.20;;;;;;;-128.00;-1.00;-1.00;18889;296;7504152;-36
2023/07/22 05:37:17;;;;;;;7.30;1.50;;;;;;;-128.00;-1.00;-1.00;18866;296;7504471;-36
2023/07/22 05:39:43;;;;;;;4.20;1.90;;;;;;;-128.00;-1.00;-1.00;18873;296;7504788;-36
2023/07/22 05:42:09;;;;;;;2.30;1.50;;;;;;;-128.00;-1.00;-1.00;18868;296;7504572;-32
2023/07/22 05:44:35;;;;;;;2.90;1.90;;;;;;;-128.00;-1.00;-1.00;18860;296;7504341;-36
2023/07/22 05:47:01;;;;;;;1.40;1.20;;;;;;;-128.00;-1.00;-1.00;18886;296;7505114;-32
2023/07/22 05:49:27;;;;;;;3.10;2.60;;;;;;;-128.00;-1.00;-1.00;18908;324;7505084;-32
2023/07/22 05:51:54;;;;;;;3.20;1.90;;;;;;;-128.00;-1.00;-1.00;18863;296;7505528;-35
2023/07/22 05:54:21;;;;;;;3.20;2.50;;;;;;;-128.00;-1.00;-1.00;18849;299;7504797;-31
2023/07/22 05:56:46;;;;;;;3.10;1.50;;;;;;;-128.00;-1.00;-1.00;18457;295;7506125;-36
2023/07/22 05:59:12;;;;;;;4.50;2.10;;;;;;;-128.00;-1.00;-1.00;18849;303;7505374;-35
2023/07/22 06:01:39;;;;;;;3.80;3.10;;;;;;;-128.00;-1.00;-1.00;18849;295;7504588;-31
2023/07/22 06:04:05;;;;;;;5.10;3.80;;;;;;;-128.00;-1.00;-1.00;18881;295;7506048;-35
2023/07/22 06:06:31;;;;;;;1.90;1.40;;;;;;;-128.00;-1.00;-1.00;18879;288;7504527;-32
2023/07/22 06:08:57;;;;;;;3.20;2.80;;;;;;;-128.00;-1.00;-1.00;18881;288;7504642;-33
2023/07/22 06:11:24;;;;;;;4.00;2.40;;;;;;;-128.00;-1.00;-1.00;18863;288;7505175;-31
2023/07/22 06:13:50;;;;;;;3.10;1.70;;;;;;;-128.00;-1.00;-1.00;18883;288;7504485;-35
2023/07/22 06:16:17;;;;;;;3.60;2.90;;;;;;;-128.00;-1.00;-1.00;18868;288;7505253;-32
2023/07/22 06:18:43;;;;;;;1.90;1.50;;;;;;;-128.00;-1.00;-1.00;18466;296;7504626;-32
2023/07/22 06:21:10;;;;;;;2.40;2.00;;;;;;;-128.00;-1.00;-1.00;18879;296;7507612;-33
2023/07/22 06:23:36;;;;;;;2.20;1.90;;;;;;;-128.00;-1.00;-1.00;18459;295;7506241;-33
2023/07/22 06:26:02;;;;;;;1.30;1.20;;;;;;;-128.00;-1.00;-1.00;18472;320;7504400;-32
2023/07/22 06:28:28;;;;;;;2.50;2.00;;;;;;;-128.00;-1.00;-1.00;18447;297;7506375;-35
2023/07/22 06:30:54;;;;;;;5.30;2.00;;;;;;;-128.00;-1.00;-1.00;18871;295;7504721;-36
2023/07/22 06:33:21;;;;;;;4.90;1.00;;;;;;;-128.00;-1.00;-1.00;18873;288;7504856;-32
2023/07/22 06:35:47;;;;;;;1.60;1.30;;;;;;;-128.00;-1.00;-1.00;18896;320;7504855;-35
2023/07/22 06:38:13;;;;;;;4.10;2.10;;;;;;;-128.00;-1.00;-1.00;18886;295;7504392;-31
2023/07/22 06:40:40;;;;;;;3.10;2.50;;;;;;;-128.00;-1.00;-1.00;18863;288;7504317;-34
2023/07/22 06:43:06;;;;;;;2.60;2.30;;;;;;;-128.00;-1.00;-1.00;18852;288;7504826;-36
2023/07/22 06:45:32;;;;;;;3.50;2.00;;;;;;;-128.00;-1.00;-1.00;18878;288;7504110;-32
2023/07/22 06:47:59;;;;;;;7.00;2.10;;;;;;;-128.00;-1.00;-1.00;18845;295;7504577;-36
2023/07/22 06:50:25;;;;;;;2.60;1.80;;;;;;;-128.00;-1.00;-1.00;18874;295;7505834;-36
2023/07/22 06:52:51;;;;;;;3.50;1.50;;;;;;;-128.00;-1.00;-1.00;18855;295;7504639;-32
2023/07/22 06:55:17;;;;;;;3.10;1.70;;;;;;;-128.00;-1.00;-1.00;18880;295;7505342;-36
2023/07/22 06:57:43;;;;;;;2.60;1.90;;;;;;;-128.00;-1.00;-1.00;18879;296;7505136;-36
2023/07/22 07:00:10;;;;;;;2.30;1.20;;;;;;;-128.00;-1.00;-1.00;18880;284;7504523;-36
2023/07/22 07:02:36;;;;;;;1.80;1.40;;;;;;;-128.00;-1.00;-1.00;18488;284;7504760;-32
2023/07/22 07:05:02;;;;;;;0.90;0.80;;;;;;;-128.00;-1.00;-1.00;18462;284;7505210;-36
2023/07/22 07:07:27;;;;;;;1.30;1.10;;;;;;;-128.00;-1.00;-1.00;18481;320;7505776;-32
2023/07/22 07:09:54;;;;;;;1.50;1.10;;;;;;;-128.00;-1.00;-1.00;18888;288;7505155;-32
2023/07/22 07:12:20;;;;;;;3.60;1.80;;;;;;;-128.00;-1.00;-1.00;18858;295;7504586;-31
2023/07/22 07:14:46;;;;;;;2.50;1.40;;;;;;;-128.00;-1.00;-1.00;18879;295;7504714;-31
2023/07/22 07:17:12;;;;;;;6.10;2.40;;;;;;;-128.00;-1.00;-1.00;18860;295;7504900;-32
2023/07/22 07:19:39;;;;;;;1.70;1.50;;;;;;;-128.00;-1.00;-1.00;18892;348;7506752;-36
2023/07/22 07:22:05;;;;;;;1.80;1.40;;;;;;;-128.00;-1.00;-1.00;18876;296;7505501;-36
2023/07/22 07:24:31;;;;;;;2.00;1.80;;;;;;;-128.00;-1.00;-1.00;18890;296;7504537;-37
2023/07/22 07:26:58;;;;;;;1.90;1.20;;;;;;;-128.00;-1.00;-1.00;18883;337;7504914;-32
2023/07/22 07:29:24;;;;;;;1.40;1.00;;;;;;;-128.00;-1.00;-1.00;18871;297;7505405;-32
2023/07/22 07:31:50;;;;;;;2.20;1.40;;;;;;;-128.00;-1.00;-1.00;18873;295;7504856;-36
2023/07/22 07:34:16;;;;;;;1.80;1.10;;;;;;;-128.00;-1.00;-1.00;18871;288;7504779;-36
2023/07/22 07:36:43;;;;;;;2.80;1.20;;;;;;;-128.00;-1.00;-1.00;18874;295;7504900;-32
2023/07/22 07:39:09;;;;;;;2.40;0.90;;;;;;;-128.00;-1.00;-1.00;18868;297;7504351;-32
2023/07/22 07:41:37;;;;;;;1.30;1.10;;;;;;;-128.00;-1.00;-1.00;18455;308;7505941;-31
2023/07/22 07:44:04;;;;;;;0.80;0.50;;;;;;;-128.00;-1.00;-1.00;18472;288;7505987;-32
2023/07/22 07:46:29;;;;;;;1.90;1.60;;;;;;;-128.00;-1.00;-1.00;18484;295;7505834;-35
2023/07/22 07:49:00;;;;;;;1.90;1.10;;;;;;;-128.00;-1.00;-1.00;18853;288;7505236;-33
2023/07/22 07:51:26;;;;;;;4.20;1.10;;;;;;;-128.00;-1.00;-1.00;18454;295;7504810;-36
2023/07/22 07:53:52;;;;;;;2.40;1.20;;;;;;;-128.00;-1.00;-1.00;18474;295;7504559;-33
2023/07/22 07:56:18;;;;;;;1.40;1.00;;;;;;;-128.00;-1.00;-1.00;18457;295;7506002;-32
2023/07/22 07:58:45;;;;;;;1.30;1.20;;;;;;;-128.00;-1.00;-1.00;18466;307;7504520;-36
2023/07/22 08:01:11;;;;;;;1.30;0.90;;;;;;;-128.00;-1.00;-1.00;18482;288;7504395;-36
2023/07/22 08:03:38;;;;;;;10.30;0.80;;;;;;;-128.00;-1.00;-1.00;18473;297;7506217;-31
2023/07/22 08:06:04;;;;;;;2.50;1.80;;;;;;;-128.00;-1.00;-1.00;18479;336;7504555;-33
2023/07/22 08:08:30;;;;;;;0.40;0.40;;;;;;;-128.00;-1.00;-1.00;18469;296;7504305;-36
2023/07/22 08:11:00;;;;;;;1.50;0.70;;;;;;;-128.00;-1.00;-1.00;18453;295;7505389;-37
2023/07/22 08:13:27;;;;;;;0.70;0.70;;;;;;;-128.00;-1.00;-1.00;18477;295;7504836;-32
2023/07/22 08:15:53;;;;;;;1.30;1.00;;;;;;;-128.00;-1.00;-1.00;18471;295;7505530;-31
2023/07/22 08:24:27;;;;;;;1.40;1.20;;;;;;;;;;100892;300;543067;-37
2023/07/22 08:26:53;;;;;;;3.60;0.40;;;;;;;;;;101222;302;22690;-36
2023/07/22 08:29:19;;;;;;;1.40;1.10;;;;;;;;;;100920;302;24251;-34
2023/07/22 08:31:44;;;;;;;1.40;1.30;;;;;;;;;;101146;299;22855;-31
2023/07/22 08:34:10;;;;;;;1.00;0.80;;;;;;;;;;101191;288;23014;-35
2023/07/22 08:36:36;;;;;;;4.70;1.20;;;;;;;;;;101357;288;22590;-31
2023/07/22 08:39:01;;;;;;;0.90;0.80;;;;;;;;;;100922;297;640541;-31
2023/07/22 08:41:27;;;;;;;3.90;1.00;;;;;;;;;;101323;297;24103;-35
2023/07/22 08:43:52;;;;;;;1.50;1.00;;;;;;;;;;101446;297;24745;-31
2023/07/22 08:46:19;;;;;;;1.00;0.70;;;;;;;;;;101415;298;22577;-32
2023/07/22 08:48:46;;;;;;;0.90;0.80;;;;;;;;;;101506;297;24244;-35
2023/07/22 08:51:18;;;;;;;4.40;0.50;;;;;;;;;;101378;297;23098;-35
2023/07/22 08:53:44;;;;;;;5.00;0.80;;;;;;;;;;101347;297;22674;-35
2023/07/22 08:56:10;;;;;;;6.50;1.20;;;;;;;;;;101349;297;22882;-33
2023/07/22 08:58:36;;;;;;;0.60;0.50;;;;;;;;;;101377;297;22601;-35
2023/07/22 09:01:01;;;;;;;0.40;0.30;;;;;;;;;;101417;297;24194;-32
2023/07/22 09:03:27;;;;;;;0.50;0.50;;;;;;;;;;101329;298;22883;-35
2023/07/22 09:05:52;;;;;;;4.60;1.00;;;;;;;;;;101359;298;24148;-32
2023/07/22 09:08:18;;;;;;;1.60;0.90;;;;;;;;;;101435;297;24146;-36
2023/07/22 09:10:44;;;;;;;1.00;0.90;;;;;;;;;;101301;297;25419;-32
2023/07/22 09:13:09;;;;;;;3.00;0.70;;;;;;;;;;101430;297;22882;-31
2023/07/22 09:15:36;;;;;;;1.90;0.90;;;;;;;;;;101423;298;24069;-36
2023/07/22 09:18:01;;;;;;;3.50;0.90;;;;;;;;;;101426;297;22810;-36
2023/07/22 09:20:28;;;;;;;1.00;0.80;;;;;;;;;;101454;297;22889;-35
2023/07/22 09:22:54;;;;;;;1.20;1.10;;;;;;;;;;101342;297;23808;-36
2023/07/22 09:25:21;;;;;;;1.70;1.00;;;;;;;;;;101352;297;22847;-35
2023/07/22 09:27:47;;;;;;;2.20;0.70;;;;;;;;;;101448;297;24103;-38
2023/07/22 09:30:25;;;;;;;3.50;1.90;;;;;;;;;;101362;298;24145;-33
2023/07/22 09:32:52;;;;;;;0.90;0.70;;;;;;;;;;101415;297;24074;-36
2023/07/22 09:35:18;;;;;;;0.80;0.60;;;;;;;;;;101458;298;22886;-35
2023/07/22 09:37:43;;;;;;;0.90;0.70;;;;;;;;;;101315;289;24116;-36
2023/07/22 09:40:16;;;;;;;2.70;1.40;;;;;;;;;;101311;291;24146;-36
2023/07/22 09:42:43;;;;;;;1.30;1.00;;;;;;;;;;101397;297;23010;-35
2023/07/22 09:45:09;;;;;;;0.50;0.50;;;;;;;;;;101373;297;22699;-35
2023/07/22 09:47:41;;;;;;;1.50;0.90;;;;;;;;;;101247;298;23014;-35
2023/07/22 09:50:08;;;;;;;1.50;0.30;;;;;;;;;;101480;297;24113;-31
2023/07/22 09:52:34;;;;;;;1.00;0.80;;;;;;;;;;101381;297;22586;-37
2023/07/22 09:55:00;;;;;;;1.20;0.70;;;;;;;;;;101359;298;22577;-37
2023/07/22 09:57:25;;;;;;;1.80;0.40;;;;;;;;;;101447;298;23802;-31
2023/07/22 09:59:51;;;;;;;1.10;0.50;;;;;;;;;;101357;297;23013;-30
2023/07/22 10:02:18;;;;;;;1.10;0.80;;;;;;;;;;101384;289;22584;-35
2023/07/22 10:04:44;;;;;;;0.50;0.50;;;;;;;;;;101306;298;24076;-35
2023/07/22 10:07:11;;;;;;;1.00;0.80;;;;;;;;;;101327;297;22956;-35
2023/07/22 10:09:36;;;;;;;0.90;0.70;;;;;;;;;;101379;298;24146;-32
2023/07/22 10:12:03;;;;;;;1.10;0.90;;;;;;;;;;101361;297;24212;-32
2023/07/22 10:14:29;;;;;;;0.70;0.40;;;;;;;;;;101413;297;24149;-30
2023/07/22 10:16:54;;;;;;;1.10;0.80;;;;;;;;;;101349;297;24241;-35
2023/07/22 10:19:21;;;;;;;2.40;1.00;;;;;;;;;;101372;297;25398;-35
2023/07/22 10:21:47;;;;;;;1.90;0.60;;;;;;;;;;101476;297;24146;-36
2023/07/22 10:24:12;;;;;;;1.70;1.10;;;;;;;;;;101434;297;22576;-36
2023/07/22 10:26:38;;;;;;;1.20;0.90;;;;;;;;;;101343;298;22613;-31
2023/07/22 10:29:03;;;;;;;1.00;0.50;;;;;;;;;;101401;298;25046;-31
2023/07/22 10:31:32;;;;;;;1.10;0.70;;;;;;;;;;101465;298;22885;-31
2023/07/22 10:33:58;;;;;;;1.10;0.70;;;;;;;;;;101386;297;22582;-35
2023/07/22 10:36:24;;;;;;;0.50;0.40;;;;;;;;;;101353;286;22949;-31
2023/07/22 10:38:56;;;;;;;1.80;1.00;;;;;;;;;;101342;297;22530;-37
2023/07/22 10:41:21;;;;;;;0.90;0.50;;;;;;;;;;101437;297;22579;-35
2023/07/22 10:44:00;;;;;;;1.30;0.70;;;;;;;;;;101294;297;24042;-36
2023/07/22 10:46:43;;;;;;;1.40;0.90;;;;;;;;;;101428;297;22673;-35
2023/07/22 10:49:13;;;;;;;0.50;0.30;;;;;;;;;;101447;297;24210;-30
2023/07/22 10:51:39;;;;;;;0.50;0.30;;;;;;;;;;101438;297;22624;-32
2023/07/22 10:54:11;;;;;;;1.20;0.60;;;;;;;;;;101315;297;23031;-31
2023/07/22 10:56:37;;;;;;;1.00;0.70;;;;;;;;;;101387;297;22585;-31
2023/07/22 10:59:03;;;;;;;1.00;0.60;;;;;;;;;;101282;298;22863;-35
2023/07/22 11:01:31;;;;;;;0.80;0.60;;;;;;;;;;101375;297;22577;-34
2023/07/22 11:04:11;;;;;;;1.60;1.10;;;;;;;;;;101335;297;24246;-31
2023/07/22 11:06:38;;;;;;;2.40;0.40;;;;;;;;;;101476;298;24134;-31
2023/07/22 11:09:03;;;;;;;1.10;0.70;;;;;;;;;;101326;297;25266;-30
2023/07/22 11:11:35;;;;;;;1.10;0.70;;;;;;;;;;101397;297;22889;-30
2023/07/22 11:14:13;;;;;;;0.80;0.30;;;;;;;;;;101453;297;24174;-33
2023/07/22 11:16:39;;;;;;;0.60;0.40;;;;;;;;;;101464;297;22580;-30
2023/07/22 11:19:04;;;;;;;0.60;0.40;;;;;;;;;;101388;297;22883;-31
2023/07/22 11:21:30;;;;;;;9.60;0.80;;;;;;;;;;101393;297;24910;-32
2023/07/22 11:23:55;;;;;;;0.30;0.20;;;;;;;;;;101346;297;24246;-31
2023/07/22 11:26:21;;;;;;;1.10;0.60;;;;;;;;;;101425;297;22580;-35
2023/07/22 11:28:47;;;;;;;0.50;0.50;;;;;;;;;;101384;297;22591;-38
2023/07/22 11:31:12;;;;;;;1.40;0.90;;;;;;;;;;101461;297;24117;-33
2023/07/22 11:33:39;;;;;;;0.60;0.20;;;;;;;;;;101345;297;22675;-36
2023/07/22 11:36:04;;;;;;;1.20;0.40;;;;;;;;;;101356;297;22754;-32
2023/07/22 11:38:30;;;;;;;1.20;0.70;;;;;;;;;;101536;298;22585;-35
2023/07/22 11:40:56;;;;;;;2.20;1.90;;;;;;;;;;101417;286;24116;-30
2023/07/22 11:43:22;;;;;;;0.40;0.40;;;;;;;;;;101398;297;22885;-31
2023/07/22 11:45:47;;;;;;;1.10;0.80;;;;;;;;;;101316;297;22886;-35
2023/07/22 11:48:13;;;;;;;0.90;0.70;;;;;;;;;;101418;297;22852;-31
2023/07/22 11:50:39;;;;;;;2.50;1.70;;;;;;;;;;101404;298;22670;-33
2023/07/22 11:53:04;;;;;;;7.10;5.10;;;;;;;;;;101361;297;24220;-34
2023/07/22 11:55:30;;;;;;;31.50;22.60;;;;;;;;;;101448;298;22990;-35
2023/07/22 11:57:55;;;;;;;3.10;1.40;;;;;;;;;;101282;298;24123;-34
2023/07/22 12:00:21;;;;;;;1.30;0.70;;;;;;;;;;101377;286;24192;-37
2023/07/22 12:02:46;;;;;;;1.40;0.40;;;;;;;;;;101254;298;22576;-31
2023/07/22 12:05:12;;;;;;;1.70;0.90;;;;;;;;;;101469;298;22667;-31
2023/07/22 12:07:38;;;;;;;11.60;4.60;;;;;;;;;;101391;298;24261;-32
2023/07/22 12:10:07;;;;;;;2.40;1.00;;;;;;;;;;101459;298;25823;-31
2023/07/22 12:12:36;;;;;;;22.50;1.00;;;;;;;;;;101387;298;23023;-35
2023/07/22 12:15:15;;;;;;;0.60;0.50;;;;;;;;;;101416;298;22590;-33
2023/07/22 12:17:52;;;;;;;1.40;0.80;;;;;;;;;;101385;298;22581;-34
2023/07/22 12:20:18;;;;;;;0.60;0.50;;;;;;;;;;101320;297;24076;-31
2023/07/22 12:22:43;;;;;;;1.80;0.90;;;;;;;;;;101327;297;24148;-35
2023/07/22 12:25:09;;;;;;;2.70;0.80;;;;;;;;;;101407;297;22903;-31
2023/07/22 12:27:36;;;;;;;1.30;0.70;;;;;;;;;;101286;298;22580;-31
2023/07/22 12:30:02;;;;;;;8.80;1.30;;;;;;;;;;101335;298;22581;-35
2023/07/22 12:32:28;;;;;;;1.80;0.60;;;;;;;;;;101360;298;24312;-36
2023/07/22 13:17:04;;;;;;;0.80;0.30;;;;;;;23.50;36.77;99203.93;100335;297;1002964;-37
2023/07/22 13:19:31;;;;;;;0.80;0.50;;;;;;;23.39;37.31;99202.95;100873;297;591311;-35
2023/07/22 13:21:56;;;;;;;2.70;0.70;;;;;;;23.59;37.38;99203.95;100643;296;925571;-35
2023/07/22 13:24:22;;;;;;;1.90;0.70;;;;;;;23.74;36.43;94282.81;100989;296;194689;-31
2023/07/22 13:26:48;;;;;;;3.90;0.80;;;;;;;23.45;36.44;99206.55;101354;296;24328;-35
2023/07/22 13:29:14;;;;;;;0.80;0.60;;;;;;;23.36;36.45;99202.82;101214;296;159823;-35
2023/07/22 13:31:39;;;;;;;2.20;0.80;;;;;;;23.28;36.65;89374.41;101116;296;232729;-30
2023/07/22 13:34:05;;;;;;;0.60;0.50;;;;;;;23.39;37.00;99199.57;101222;296;24144;-39
2023/07/22 13:36:30;;;;;;;0.90;0.70;;;;;;;23.16;37.36;99197.69;101298;296;22819;-32
2023/07/22 13:38:56;;;;;;;1.30;0.80;;;;;;;23.03;38.85;99195.38;101222;296;24142;-32
2023/07/22 13:41:22;;;;;;;1.20;0.50;;;;;;;23.32;38.71;99191.98;101287;296;22584;-34
2023/07/22 13:43:47;;;;;;;1.10;0.50;;;;;;;-6.64;30.16;79356.49;99990;296;1001344;-30
2023/07/22 13:46:13;;;;;;;0.60;0.50;;;;;;;-6.64;30.16;79356.49;99449;296;1002822;-30
2023/07/22 13:48:38;;;;;;;0.70;0.60;;;;;;;23.83;37.26;99183.96;101308;289;24241;-37
2023/07/22 13:51:04;;;;;;;0.70;0.50;;;;;;;24.09;36.98;99188.31;101272;296;23374;-37